Time;durP1;ratioP1;P1;durP2;ratioP2;P2;SDS_P1;SDS_P2;PMS_P1;PMS_P2;Temp;Humidity;BMP_temperature;BMP_pressure;BME280_temperature;BME280_humidity;BME280_pressure;Samples;Min_cycle;Max_cycle;Signal;HPM_P1;HPM_P2
2022/05/08 00:02:17;;;;;;;18.80;4.35;;;;;;;;;;5046841;28;20060;-58
2022/05/08 00:04:43;;;;;;;11.23;2.85;;;;;;;;;;5049037;28;20475;-58
2022/05/08 00:07:09;;;;;;;23.70;3.58;;;;;;;;;;5065631;28;20433;-58
2022/05/08 00:09:35;;;;;;;17.17;2.95;;;;;;;;;;5066353;28;20048;-58
2022/05/08 00:12:01;;;;;;;20.02;3.03;;;;;;;;;;5066344;28;20524;-58
2022/05/08 00:14:27;;;;;;;18.48;3.42;;;;;;;;;;5065617;28;20127;-58
2022/05/08 00:16:53;;;;;;;25.88;3.50;;;;;;;;;;5047645;28;20048;-59
2022/05/08 00:19:20;;;;;;;22.90;4.15;;;;;;;;;;5066146;28;20045;-58
2022/05/08 00:21:46;;;;;;;14.57;2.72;;;;;;;;;;5066487;28;20048;-59
2022/05/08 00:24:12;;;;;;;15.35;3.25;;;;;;;;;;5050777;28;20041;-59
2022/05/08 00:26:38;;;;;;;17.98;2.60;;;;;;;;;;5066232;28;20402;-58
2022/05/08 00:29:04;;;;;;;17.67;3.33;;;;;;;;;;5063217;28;20526;-58
2022/05/08 00:31:30;;;;;;;25.02;3.53;;;;;;;;;;5063888;28;20040;-59
2022/05/08 00:33:56;;;;;;;23.75;3.20;;;;;;;;;;5066271;28;20036;-58
2022/05/08 00:36:22;;;;;;;12.48;3.22;;;;;;;;;;5047737;28;20052;-58
2022/05/08 00:38:48;;;;;;;20.55;3.22;;;;;;;;;;5047780;28;20048;-59
2022/05/08 00:41:14;;;;;;;16.40;3.58;;;;;;;;;;5047287;28;20114;-59
2022/05/08 00:43:41;;;;;;;16.10;2.85;;;;;;;;;;5047761;28;20049;-58
2022/05/08 00:46:09;;;;;;;21.45;3.58;;;;;;;;;;5065556;28;20212;-58
2022/05/08 00:48:35;;;;;;;15.23;3.40;;;;;;;;;;5064131;28;20041;-58
2022/05/08 00:51:02;;;;;;;14.77;3.38;;;;;;;;;;5066030;28;20051;-58
2022/05/08 00:53:33;;;;;;;17.88;2.97;;;;;;;;;;5064714;28;20131;-58
2022/05/08 00:56:01;;;;;;;18.63;2.95;;;;;;;;;;5047370;28;20037;-58
2022/05/08 00:58:27;;;;;;;23.13;3.10;;;;;;;;;;5046933;28;20057;-58
2022/05/08 01:00:54;;;;;;;14.98;2.85;;;;;;;;;;5047809;28;20108;-58
2022/05/08 01:03:20;;;;;;;16.67;3.60;;;;;;;;;;5045631;28;20129;-59
2022/05/08 01:05:47;;;;;;;17.20;3.30;;;;;;;;;;5064094;28;20508;-59
2022/05/08 01:08:14;;;;;;;21.10;3.38;;;;;;;;;;5047503;28;20135;-58
2022/05/08 01:10:40;;;;;;;19.25;3.20;;;;;;;;;;5046844;28;20056;-58
2022/05/08 01:13:06;;;;;;;17.40;3.45;;;;;;;;;;5047188;28;20333;-58
2022/05/08 01:15:40;;;;;;;15.57;3.30;;;;;;;;;;5063477;28;20390;-58
2022/05/08 01:18:06;;;;;;;16.20;3.90;;;;;;;;;;5063376;28;20105;-58
2022/05/08 01:20:32;;;;;;;20.73;3.05;;;;;;;;;;5064891;28;20036;-58
2022/05/08 01:22:58;;;;;;;19.63;3.65;;;;;;;;;;5065259;28;20040;-58
2022/05/08 01:25:24;;;;;;;14.98;3.63;;;;;;;;;;5045376;28;20555;-58
2022/05/08 01:27:51;;;;;;;13.73;2.95;;;;;;;;;;5052479;28;20132;-59
2022/05/08 01:30:17;;;;;;;14.55;3.28;;;;;;;;;;5064667;28;20094;-58
2022/05/08 01:32:43;;;;;;;9.52;2.97;;;;;;;;;;5064723;28;20045;-59
2022/05/08 01:35:09;;;;;;;18.52;3.45;;;;;;;;;;5046278;28;20710;-58
2022/05/08 01:37:35;;;;;;;13.50;3.63;;;;;;;;;;5047510;28;20063;-58
2022/05/08 01:40:01;;;;;;;16.27;3.22;;;;;;;;;;5057909;28;20406;-58
2022/05/08 01:42:28;;;;;;;13.90;2.83;;;;;;;;;;5064995;28;20044;-58
2022/05/08 01:44:54;;;;;;;16.02;3.60;;;;;;;;;;5046507;28;20044;-58
2022/05/08 01:50:05;;;;;;;20.63;3.83;;;;;;;;;;5042457;28;20045;-58
2022/05/08 01:52:32;;;;;;;24.98;4.00;;;;;;;;;;5047086;28;20044;-58
2022/05/08 01:54:58;;;;;;;18.52;3.30;;;;;;;;;;5064840;28;20048;-58
2022/05/08 01:57:24;;;;;;;19.67;3.15;;;;;;;;;;5063604;28;20128;-59
2022/05/08 01:59:50;;;;;;;23.58;3.35;;;;;;;;;;5063557;28;20036;-58
2022/05/08 02:02:16;;;;;;;16.30;3.05;;;;;;;;;;5062895;28;20547;-59
2022/05/08 02:04:42;;;;;;;15.65;3.30;;;;;;;;;;5046434;28;20041;-58
2022/05/08 02:07:08;;;;;;;17.05;3.13;;;;;;;;;;5046207;28;20053;-58
2022/05/08 02:09:34;;;;;;;20.48;3.50;;;;;;;;;;5045504;28;20108;-58
2022/05/08 02:12:01;;;;;;;13.00;2.85;;;;;;;;;;5046475;28;20045;-58
2022/05/08 02:14:27;;;;;;;13.65;3.00;;;;;;;;;;5069055;28;20493;-58
2022/05/08 02:16:53;;;;;;;17.77;3.17;;;;;;;;;;5066644;28;20495;-58
2022/05/08 02:19:19;;;;;;;15.38;3.22;;;;;;;;;;5068493;28;20040;-59
2022/05/08 02:21:45;;;;;;;13.68;3.13;;;;;;;;;;5049500;28;20052;-59
2022/05/08 02:24:11;;;;;;;11.88;2.22;;;;;;;;;;5068927;28;20552;-58
2022/05/08 02:26:37;;;;;;;9.13;2.10;;;;;;;;;;5068441;28;20102;-58
2022/05/08 02:29:03;;;;;;;11.80;2.35;;;;;;;;;;5052983;28;20116;-58
2022/05/08 02:31:29;;;;;;;10.27;2.15;;;;;;;;;;5056431;28;20695;-58
2022/05/08 02:33:57;;;;;;;14.02;2.55;;;;;;;;;;5049793;28;20071;-58
2022/05/08 02:36:23;;;;;;;17.52;3.00;;;;;;;;;;5056477;28;20094;-58
2022/05/08 02:38:49;;;;;;;13.65;2.78;;;;;;;;;;5067892;28;20091;-58
2022/05/08 02:41:15;;;;;;;14.25;2.85;;;;;;;;;;5067636;28;20040;-59
2022/05/08 02:43:41;;;;;;;16.02;3.50;;;;;;;;;;5050195;28;20041;-58
2022/05/08 02:46:07;;;;;;;22.75;4.55;;;;;;;;;;5049025;28;20045;-58
2022/05/08 02:48:33;;;;;;;13.90;2.70;;;;;;;;;;5048911;28;20041;-58
2022/05/08 02:50:59;;;;;;;18.58;3.70;;;;;;;;;;5049382;28;20037;-58
2022/05/08 02:53:25;;;;;;;14.07;3.05;;;;;;;;;;5066208;28;20102;-58
2022/05/08 02:58:37;;;;;;;12.00;3.03;;;;;;;;;;5068142;28;20040;-58
2022/05/08 03:01:05;;;;;;;14.02;4.05;;;;;;;;;;5064748;28;20075;-58
2022/05/08 03:03:31;;;;;;;14.70;3.30;;;;;;;;;;5049014;28;20102;-58
2022/05/08 03:05:57;;;;;;;16.30;3.90;;;;;;;;;;5049225;28;20033;-58
2022/05/08 03:08:24;;;;;;;15.70;4.35;;;;;;;;;;5048709;28;20573;-58
2022/05/08 03:13:36;;;;;;;8.65;2.47;;;;;;;;;;5066247;28;20048;-58
2022/05/08 03:16:03;;;;;;;13.15;2.85;;;;;;;;;;5044165;28;20068;-58
2022/05/08 03:18:29;;;;;;;10.07;2.67;;;;;;;;;;5048278;28;20566;-58
2022/05/08 03:20:56;;;;;;;10.43;3.05;;;;;;;;;;5053011;28;20044;-58
2022/05/08 03:23:22;;;;;;;13.05;2.70;;;;;;;;;;5067397;28;20082;-59
2022/05/08 03:25:49;;;;;;;17.83;2.88;;;;;;;;;;5067630;28;20044;-58
2022/05/08 03:28:16;;;;;;;8.60;2.50;;;;;;;;;;5066120;28;20084;-58
2022/05/08 03:30:43;;;;;;;13.85;3.40;;;;;;;;;;5063319;28;20059;-58
2022/05/08 03:33:09;;;;;;;12.25;2.75;;;;;;;;;;5048295;28;20033;-58
2022/05/08 03:35:37;;;;;;;6.63;2.78;;;;;;;;;;5048459;28;20770;-58
2022/05/08 03:38:03;;;;;;;9.93;2.38;;;;;;;;;;5048671;28;20048;-58
2022/05/08 03:40:29;;;;;;;11.13;2.67;;;;;;;;;;5052532;28;20371;-58
2022/05/08 03:42:55;;;;;;;17.15;3.22;;;;;;;;;;5060643;28;20052;-58
2022/05/08 03:45:22;;;;;;;10.43;3.17;;;;;;;;;;5048471;28;20048;-58
2022/05/08 03:47:51;;;;;;;13.32;3.13;;;;;;;;;;5047799;28;20477;-58
2022/05/08 03:50:19;;;;;;;11.23;2.85;;;;;;;;;;5052179;28;20049;-58
2022/05/08 03:52:45;;;;;;;6.97;2.83;;;;;;;;;;5067402;28;20040;-59
2022/05/08 03:55:13;;;;;;;8.23;2.17;;;;;;;;;;5044701;28;20098;-58
2022/05/08 03:57:39;;;;;;;11.32;2.70;;;;;;;;;;5048792;28;20041;-58
2022/05/08 04:00:06;;;;;;;8.82;2.90;;;;;;;;;;5052639;28;20051;-58
2022/05/08 04:02:32;;;;;;;10.40;3.13;;;;;;;;;;5066061;28;20044;-58
2022/05/08 04:05:00;;;;;;;13.35;3.20;;;;;;;;;;5054801;28;20069;-58
2022/05/08 04:07:26;;;;;;;12.13;2.85;;;;;;;;;;5052583;28;20045;-58
2022/05/08 04:09:52;;;;;;;9.50;2.60;;;;;;;;;;5052885;28;20048;-58
2022/05/08 04:12:18;;;;;;;6.70;2.50;;;;;;;;;;5066914;28;20052;-58
2022/05/08 04:14:44;;;;;;;13.52;2.63;;;;;;;;;;5066484;28;20809;-59
2022/05/08 04:17:10;;;;;;;9.15;1.95;;;;;;;;;;5065773;28;20055;-58
2022/05/08 04:19:37;;;;;;;6.82;1.30;;;;;;;;;;5062222;28;20040;-58
2022/05/08 04:24:49;;;;;;;11.32;2.45;;;;;;;;;;5045380;28;20071;-58
2022/05/08 04:27:15;;;;;;;13.82;3.35;;;;;;;;;;5047487;28;20041;-58
2022/05/08 04:29:41;;;;;;;16.55;3.80;;;;;;;;;;5054295;28;20150;-58
2022/05/08 04:32:07;;;;;;;14.25;3.38;;;;;;;;;;5064199;28;20482;-58
2022/05/08 04:34:34;;;;;;;8.73;3.05;;;;;;;;;;5046757;28;20045;-58
2022/05/08 04:37:00;;;;;;;8.88;3.47;;;;;;;;;;5047100;28;20227;-58
2022/05/08 04:39:26;;;;;;;14.85;3.70;;;;;;;;;;5053059;28;20041;-59
2022/05/08 04:41:52;;;;;;;14.90;3.70;;;;;;;;;;5064597;28;20032;-59
2022/05/08 04:44:19;;;;;;;12.73;3.55;;;;;;;;;;5052559;28;20494;-58
2022/05/08 04:46:45;;;;;;;15.15;3.72;;;;;;;;;;5045301;28;20049;-59
2022/05/08 04:49:11;;;;;;;12.13;3.38;;;;;;;;;;5053155;28;20047;-58
2022/05/08 04:51:37;;;;;;;14.77;3.20;;;;;;;;;;5065011;28;20089;-58
2022/05/08 04:54:04;;;;;;;16.08;3.30;;;;;;;;;;5047237;28;20243;-58
2022/05/08 04:56:31;;;;;;;13.05;3.22;;;;;;;;;;5042390;28;20041;-58
2022/05/08 04:58:57;;;;;;;13.30;3.30;;;;;;;;;;5052504;28;20072;-58
2022/05/08 05:01:23;;;;;;;14.93;3.25;;;;;;;;;;5063492;28;20043;-59
2022/05/08 05:03:50;;;;;;;10.73;3.58;;;;;;;;;;5050544;28;20441;-58
2022/05/08 05:06:17;;;;;;;11.52;3.40;;;;;;;;;;5042845;28;20538;-59
2022/05/08 05:08:43;;;;;;;9.70;2.83;;;;;;;;;;5059007;28;20048;-58
2022/05/08 05:11:10;;;;;;;15.35;3.70;;;;;;;;;;5046865;28;20049;-58
2022/05/08 05:13:36;;;;;;;17.27;3.20;;;;;;;;;;5065437;28;20118;-58
2022/05/08 05:16:03;;;;;;;11.82;3.33;;;;;;;;;;5064818;28;20060;-58
2022/05/08 05:18:29;;;;;;;9.32;3.28;;;;;;;;;;5060159;28;20045;-58
2022/05/08 05:20:55;;;;;;;15.73;3.88;;;;;;;;;;5047815;28;20410;-59
2022/05/08 05:23:21;;;;;;;17.92;3.40;;;;;;;;;;5053569;28;20048;-59
2022/05/08 05:25:47;;;;;;;14.10;3.55;;;;;;;;;;5065192;28;20506;-58
2022/05/08 05:28:13;;;;;;;15.70;3.47;;;;;;;;;;5056593;28;20041;-58
2022/05/08 05:30:39;;;;;;;14.48;3.10;;;;;;;;;;5061922;28;20076;-58
2022/05/08 05:33:07;;;;;;;16.05;3.60;;;;;;;;;;5065067;28;20044;-58
2022/05/08 05:35:36;;;;;;;11.55;2.60;;;;;;;;;;5065105;28;20856;-58
2022/05/08 05:38:02;;;;;;;15.02;3.40;;;;;;;;;;5052791;28;20047;-58
2022/05/08 05:40:28;;;;;;;12.70;2.80;;;;;;;;;;5062570;28;20037;-58
2022/05/08 05:42:54;;;;;;;10.27;2.60;;;;;;;;;;5045601;28;20471;-59
2022/05/08 05:45:20;;;;;;;8.65;2.15;;;;;;;;;;5045697;28;20391;-59
2022/05/08 05:47:53;;;;;;;15.23;2.75;;;;;;;;;;5049087;28;20037;-59
2022/05/08 05:50:20;;;;;;;14.40;3.20;;;;;;;;;;5044308;28;20513;-60
2022/05/08 05:52:46;;;;;;;14.77;2.33;;;;;;;;;;5045491;28;20049;-59
2022/05/08 05:55:12;;;;;;;13.63;3.15;;;;;;;;;;5046550;28;20654;-59
2022/05/08 05:57:39;;;;;;;14.13;2.80;;;;;;;;;;5045801;28;20100;-59
2022/05/08 06:00:06;;;;;;;6.72;1.95;;;;;;;;;;5048777;28;20048;-59
2022/05/08 06:02:32;;;;;;;14.82;2.25;;;;;;;;;;5044824;28;20045;-60
2022/05/08 06:04:58;;;;;;;14.00;3.05;;;;;;;;;;5044722;28;20475;-59
2022/05/08 06:07:25;;;;;;;12.35;2.40;;;;;;;;;;5045012;28;20047;-59
2022/05/08 06:09:51;;;;;;;7.25;2.00;;;;;;;;;;5043321;28;20055;-59
2022/05/08 06:12:17;;;;;;;9.32;2.65;;;;;;;;;;5045511;28;20048;-59
2022/05/08 06:14:46;;;;;;;8.90;1.90;;;;;;;;;;5046763;28;20064;-59
2022/05/08 06:17:13;;;;;;;12.05;1.90;;;;;;;;;;5048494;28;20049;-59
2022/05/08 06:19:39;;;;;;;13.75;2.72;;;;;;;;;;5045624;28;20033;-59
2022/05/08 06:22:05;;;;;;;9.85;1.85;;;;;;;;;;5045544;28;20045;-59
2022/05/08 06:24:31;;;;;;;7.35;1.77;;;;;;;;;;5049945;28;20491;-59
2022/05/08 06:26:57;;;;;;;7.72;1.50;;;;;;;;;;5045957;28;20079;-59
2022/05/08 06:29:23;;;;;;;7.03;1.55;;;;;;;;;;5045638;28;20395;-59
2022/05/08 06:31:51;;;;;;;4.40;1.13;;;;;;;;;;5051862;28;20121;-58
2022/05/08 06:34:19;;;;;;;10.90;1.53;;;;;;;;;;5061291;28;20059;-58
2022/05/08 06:36:45;;;;;;;12.57;1.73;;;;;;;;;;5045623;28;20097;-59
2022/05/08 06:39:11;;;;;;;5.90;1.20;;;;;;;;;;5045917;28;20072;-58
2022/05/08 06:41:37;;;;;;;10.48;1.77;;;;;;;;;;5044768;28;20093;-59
2022/05/08 06:44:03;;;;;;;5.20;1.23;;;;;;;;;;5047424;28;20469;-58
2022/05/08 06:46:35;;;;;;;6.68;1.27;;;;;;;;;;5063630;28;20067;-58
2022/05/08 06:49:02;;;;;;;6.55;1.20;;;;;;;;;;5064040;28;20109;-58
2022/05/08 06:51:28;;;;;;;8.05;1.42;;;;;;;;;;5064708;28;20147;-59
2022/05/08 06:53:55;;;;;;;8.95;1.42;;;;;;;;;;5061950;28;20044;-58
2022/05/08 06:56:21;;;;;;;7.80;1.30;;;;;;;;;;5045060;28;20072;-59
2022/05/08 07:01:35;;;;;;;10.25;1.48;;;;;;;;;;5049574;28;20044;-58
2022/05/08 07:04:08;;;;;;;9.27;1.10;;;;;;;;;;5053932;28;20109;-58
2022/05/08 07:06:35;;;;;;;7.18;0.82;;;;;;;;;;5067755;28;20040;-58
2022/05/08 07:09:02;;;;;;;5.18;1.20;;;;;;;;;;5041272;28;20069;-59
2022/05/08 07:11:30;;;;;;;11.63;1.42;;;;;;;;;;5045143;28;20715;-58
2022/05/08 07:13:56;;;;;;;3.70;0.90;;;;;;;;;;5046370;28;20041;-59
2022/05/08 07:16:23;;;;;;;9.85;1.15;;;;;;;;;;5044735;28;20502;-59
2022/05/08 07:18:49;;;;;;;14.77;1.30;;;;;;;;;;5046069;28;20041;-58
2022/05/08 07:21:15;;;;;;;9.73;1.10;;;;;;;;;;5041426;28;20110;-60
2022/05/08 07:23:41;;;;;;;9.43;1.08;;;;;;;;;;5046641;28;20056;-59
2022/05/08 07:26:07;;;;;;;6.22;1.05;;;;;;;;;;5044932;28;20090;-59
2022/05/08 07:28:34;;;;;;;8.60;1.08;;;;;;;;;;5046019;28;20053;-59
2022/05/08 07:31:02;;;;;;;10.77;1.33;;;;;;;;;;5044793;28;20045;-59
2022/05/08 07:33:29;;;;;;;8.77;1.48;;;;;;;;;;5045767;28;20494;-59
2022/05/08 07:36:13;;;;;;;13.00;1.48;;;;;;;;;;5046284;28;20048;-59
2022/05/08 07:38:40;;;;;;;14.55;2.00;;;;;;;;;;5046075;28;20076;-59
2022/05/08 07:41:07;;;;;;;7.68;1.50;;;;;;;;;;5043317;28;20510;-59
2022/05/08 07:43:33;;;;;;;10.15;0.95;;;;;;;;;;5045417;28;20049;-59
2022/05/08 07:45:59;;;;;;;9.35;0.90;;;;;;;;;;5043923;28;20098;-59
2022/05/08 07:48:25;;;;;;;9.77;1.35;;;;;;;;;;5045749;28;20518;-58
2022/05/08 07:50:52;;;;;;;6.13;1.10;;;;;;;;;;5045431;28;20045;-59
2022/05/08 07:53:18;;;;;;;3.38;1.10;;;;;;;;;;5046190;28;20045;-59
2022/05/08 07:55:51;;;;;;;7.88;1.00;;;;;;;;;;5045705;28;20103;-60
2022/05/08 07:58:18;;;;;;;10.02;1.30;;;;;;;;;;5046097;28;20044;-59
2022/05/08 08:00:44;;;;;;;11.75;2.00;;;;;;;;;;5056152;28;20059;-59
2022/05/08 08:03:10;;;;;;;12.05;1.33;;;;;;;;;;5046373;28;20057;-59
2022/05/08 08:05:36;;;;;;;7.07;1.20;;;;;;;;;;5046141;28;20041;-58
2022/05/08 08:08:02;;;;;;;9.77;1.35;;;;;;;;;;5045751;28;20084;-59
2022/05/08 08:10:29;;;;;;;8.65;1.40;;;;;;;;;;5035868;28;20053;-59
2022/05/08 08:12:56;;;;;;;6.78;1.38;;;;;;;;;;5045686;28;20056;-59
2022/05/08 08:15:22;;;;;;;8.75;1.10;;;;;;;;;;5044732;28;20141;-60
2022/05/08 08:17:48;;;;;;;11.93;1.60;;;;;;;;;;5045418;28;20128;-59
2022/05/08 08:20:15;;;;;;;9.43;1.50;;;;;;;;;;5041660;28;20048;-59
2022/05/08 08:22:41;;;;;;;14.27;1.60;;;;;;;;;;5044612;28;20128;-59
2022/05/08 08:25:07;;;;;;;9.68;1.38;;;;;;;;;;5045011;28;20614;-58
2022/05/08 08:27:34;;;;;;;12.05;1.67;;;;;;;;;;5044209;28;20600;-59
2022/05/08 08:30:01;;;;;;;12.65;1.50;;;;;;;;;;5045670;28;20033;-58
2022/05/08 08:32:27;;;;;;;5.73;1.33;;;;;;;;;;5044296;28;20041;-58
2022/05/08 08:34:53;;;;;;;5.80;1.20;;;;;;;;;;5044969;28;20040;-59
2022/05/08 08:37:20;;;;;;;9.95;1.55;;;;;;;;;;5044363;28;20083;-58
2022/05/08 08:39:46;;;;;;;13.45;2.22;;;;;;;;;;5044430;28;20103;-59
2022/05/08 08:42:22;;;;;;;9.93;1.80;;;;;;;;;;5045459;28;20040;-59
2022/05/08 08:47:42;;;;;;;10.98;1.45;;;;;;;;;;5045413;28;20080;-59
2022/05/08 08:50:09;;;;;;;14.27;1.58;;;;;;;;;;5044886;28;20503;-59
2022/05/08 08:52:36;;;;;;;12.00;1.50;;;;;;;;;;5044277;28;20098;-59
2022/05/08 08:55:04;;;;;;;12.50;1.70;;;;;;;;;;5052496;28;20203;-59
2022/05/08 08:57:30;;;;;;;8.27;1.70;;;;;;;;;;5043838;28;20060;-59
2022/05/08 08:59:56;;;;;;;10.68;1.77;;;;;;;;;;5044314;28;20079;-59
2022/05/08 09:02:22;;;;;;;12.68;2.03;;;;;;;;;;5042882;28;20547;-59
2022/05/08 09:04:49;;;;;;;7.97;1.45;;;;;;;;;;5044729;28;20052;-59
2022/05/08 09:07:41;;;;;;;8.45;1.70;;;;;;;;;;5044319;28;20052;-59
2022/05/08 09:10:16;;;;;;;11.43;1.60;;;;;;;;;;5043668;28;20049;-59
2022/05/08 09:12:44;;;;;;;12.10;1.85;;;;;;;;;;5045173;28;20199;-59
2022/05/08 09:15:23;;;;;;;14.18;1.70;;;;;;;;;;5043045;28;20044;-59
2022/05/08 09:17:51;;;;;;;7.03;1.58;;;;;;;;;;5043664;28;20856;-60
2022/05/08 09:20:26;;;;;;;10.53;1.40;;;;;;;;;;5043219;28;20066;-59
2022/05/08 09:23:07;;;;;;;9.93;1.45;;;;;;;;;;5040360;28;20087;-59
2022/05/08 09:25:43;;;;;;;10.27;1.40;;;;;;;;;;5039153;28;20041;-59
2022/05/08 09:28:13;;;;;;;8.18;1.33;;;;;;;;;;5044405;28;20040;-59
2022/05/08 09:30:53;;;;;;;12.23;1.45;;;;;;;;;;5040441;28;20040;-59
2022/05/08 09:33:23;;;;;;;10.63;1.60;;;;;;;;;;5041022;28;20045;-59
2022/05/08 09:35:49;;;;;;;9.88;1.92;;;;;;;;;;5040153;28;20048;-58
2022/05/08 09:38:15;;;;;;;21.33;1.92;;;;;;;;;;5041630;28;20048;-60
2022/05/08 09:40:42;;;;;;;12.98;1.55;;;;;;;;;;5062500;28;20047;-59
2022/05/08 09:43:28;;;;;;;8.82;1.55;;;;;;;;;;5045359;28;20075;-59
2022/05/08 09:45:58;;;;;;;10.20;1.60;;;;;;;;;;5045634;28;20037;-59
2022/05/08 09:48:25;;;;;;;10.20;1.50;;;;;;;;;;5058018;28;20075;-60
2022/05/08 09:50:54;;;;;;;9.00;1.67;;;;;;;;;;5046552;28;20037;-60
2022/05/08 09:53:21;;;;;;;9.25;1.73;;;;;;;;;;5043528;28;20132;-60
2022/05/08 09:55:47;;;;;;;11.80;1.98;;;;;;;;;;5051517;28;20041;-60
2022/05/08 09:58:13;;;;;;;8.32;1.40;;;;;;;;;;5050567;28;20064;-60
2022/05/08 10:00:41;;;;;;;10.93;1.67;;;;;;;;;;5063851;28;20037;-60
2022/05/08 10:03:07;;;;;;;8.65;1.27;;;;;;;;;;5064265;28;20048;-59
2022/05/08 10:05:36;;;;;;;9.57;1.50;;;;;;;;;;5057604;28;20115;-60
2022/05/08 10:08:03;;;;;;;11.10;1.95;;;;;;;;;;5054730;28;20045;-60
2022/05/08 10:15:59;;;;;;;6.50;1.60;;;;;;;;;;5043008;28;20128;-60
2022/05/08 10:18:27;;;;;;;9.13;1.55;;;;;;;;;;5058485;28;20055;-60
2022/05/08 10:21:01;;;;;;;8.75;1.50;;;;;;;;;;5051361;28;20049;-60
2022/05/08 10:23:34;;;;;;;7.55;1.65;;;;;;;;;;5045828;28;20553;-59
2022/05/08 10:26:14;;;;;;;10.27;1.63;;;;;;;;;;5047320;28;20112;-60
2022/05/08 10:28:59;;;;;;;10.60;1.48;;;;;;;;;;5055574;28;20624;-59
2022/05/08 10:31:41;;;;;;;9.98;1.80;;;;;;;;;;5059640;28;20133;-60
2022/05/08 10:34:08;;;;;;;7.25;1.42;;;;;;;;;;5063593;28;20048;-60
2022/05/08 10:36:34;;;;;;;6.63;1.48;;;;;;;;;;5060519;28;20053;-60
2022/05/08 10:39:19;;;;;;;9.55;1.48;;;;;;;;;;5059785;28;20051;-60
2022/05/08 10:41:45;;;;;;;7.53;1.17;;;;;;;;;;5049788;28;20052;-61
2022/05/08 10:44:42;;;;;;;6.25;1.50;;;;;;;;;;5052893;28;20479;-60
2022/05/08 10:47:27;;;;;;;6.43;1.50;;;;;;;;;;5052097;28;20098;-60
2022/05/08 10:49:53;;;;;;;11.32;1.92;;;;;;;;;;5051014;28;20490;-60
2022/05/08 10:52:19;;;;;;;7.00;2.00;;;;;;;;;;5066724;28;20072;-60
2022/05/08 10:54:55;;;;;;;9.40;1.73;;;;;;;;;;5067243;28;20082;-61
2022/05/08 10:57:29;;;;;;;11.52;1.63;;;;;;;;;;5060625;28;20487;-60
2022/05/08 10:59:55;;;;;;;8.85;1.55;;;;;;;;;;5049568;28;20132;-60
2022/05/08 11:02:40;;;;;;;6.35;1.40;;;;;;;;;;5046145;28;20056;-60
2022/05/08 11:05:08;;;;;;;11.40;1.73;;;;;;;;;;5049642;28;20071;-60
2022/05/08 11:07:34;;;;;;;10.40;1.70;;;;;;;;;;5055292;28;20047;-60
2022/05/08 11:10:01;;;;;;;15.55;1.60;;;;;;;;;;5048226;28;20135;-60
2022/05/08 11:12:28;;;;;;;8.25;1.75;;;;;;;;;;5048425;28;20049;-60
2022/05/08 11:15:07;;;;;;;9.27;1.30;;;;;;;;;;5049725;28;20124;-60
2022/05/08 11:17:33;;;;;;;11.85;1.83;;;;;;;;;;5058214;28;20045;-60
2022/05/08 11:19:59;;;;;;;10.60;1.80;;;;;;;;;;5049435;28;20033;-60
2022/05/08 11:22:26;;;;;;;8.50;1.90;;;;;;;;;;5050639;28;20095;-60
2022/05/08 11:24:52;;;;;;;12.18;1.90;;;;;;;;;;5046899;28;20057;-60
2022/05/08 11:27:18;;;;;;;8.43;1.70;;;;;;;;;;5044429;28;20068;-61
2022/05/08 11:29:48;;;;;;;10.07;2.03;;;;;;;;;;5045437;28;20498;-60
2022/05/08 11:38:00;;;;;;;10.75;1.70;;;;;;;;;;5045844;28;20076;-61
2022/05/08 11:40:27;;;;;;;6.32;1.70;;;;;;;;;;5049828;28;20048;-61
2022/05/08 11:42:53;;;;;;;11.02;1.50;;;;;;;;;;5045676;28;20068;-61
2022/05/08 11:45:19;;;;;;;6.25;1.48;;;;;;;;;;5044539;28;20037;-61
2022/05/08 11:47:53;;;;;;;7.55;1.70;;;;;;;;;;5045094;28;20127;-61
2022/05/08 11:50:20;;;;;;;9.98;1.35;;;;;;;;;;5043741;28;20067;-61
2022/05/08 11:52:46;;;;;;;10.38;1.98;;;;;;;;;;5045966;28;20047;-61
2022/05/08 11:55:13;;;;;;;10.05;2.03;;;;;;;;;;5043880;28;20076;-60
2022/05/08 11:57:41;;;;;;;6.45;2.30;;;;;;;;;;5045443;28;20677;-61
2022/05/08 12:00:12;;;;;;;6.68;2.13;;;;;;;;;;5043698;28;20049;-60
2022/05/08 12:02:46;;;;;;;10.13;1.73;;;;;;;;;;5046021;28;20045;-61
2022/05/08 12:05:19;;;;;;;8.85;1.85;;;;;;;;;;5046035;28;20049;-60
2022/05/08 12:07:46;;;;;;;9.07;1.58;;;;;;;;;;5044424;28;20041;-61
2022/05/08 12:10:13;;;;;;;10.05;1.80;;;;;;;;;;5045840;28;20064;-61
2022/05/08 12:12:39;;;;;;;15.38;1.60;;;;;;;;;;5046070;28;20263;-59
2022/05/08 12:15:06;;;;;;;7.10;1.35;;;;;;;;;;5044721;28;20049;-60
2022/05/08 12:17:39;;;;;;;6.80;1.60;;;;;;;;;;5039929;28;20049;-61
2022/05/08 12:20:19;;;;;;;14.27;1.80;;;;;;;;;;5031870;28;20398;-60
2022/05/08 12:22:46;;;;;;;8.55;2.03;;;;;;;;;;5040749;28;20053;-61
2022/05/08 12:25:13;;;;;;;6.20;1.53;;;;;;;;;;5044744;28;20079;-60
2022/05/08 12:27:39;;;;;;;11.82;1.70;;;;;;;;;;5045297;28;20063;-60
2022/05/08 12:30:07;;;;;;;11.55;1.80;;;;;;;;;;5041126;28;20596;-60
2022/05/08 12:32:35;;;;;;;13.07;1.95;;;;;;;;;;5035152;28;20053;-60
2022/05/08 12:35:01;;;;;;;11.40;1.60;;;;;;;;;;5030294;28;20095;-60
2022/05/08 12:37:28;;;;;;;7.43;1.70;;;;;;;;;;5050804;28;20049;-60
2022/05/08 12:39:54;;;;;;;8.85;1.90;;;;;;;;;;5035512;28;20042;-60
2022/05/08 12:42:20;;;;;;;11.20;1.40;;;;;;;;;;5028256;28;20133;-60
2022/05/08 12:44:46;;;;;;;7.78;1.80;;;;;;;;;;5028467;28;20045;-60
2022/05/08 12:47:13;;;;;;;10.52;1.63;;;;;;;;;;5030426;28;20151;-61
2022/05/08 12:49:40;;;;;;;10.45;1.48;;;;;;;;;;5029213;28;20042;-60
2022/05/08 12:52:07;;;;;;;7.55;1.60;;;;;;;;;;5028873;28;20076;-61
2022/05/08 12:54:33;;;;;;;16.80;8.63;;;;;;;;;;5034251;28;20055;-61
2022/05/08 12:57:00;;;;;;;9.80;1.88;;;;;;;;;;5032079;28;20132;-61
2022/05/08 12:59:42;;;;;;;12.52;2.08;;;;;;;;;;5032334;28;20111;-61
2022/05/08 13:02:11;;;;;;;7.00;1.70;;;;;;;;;;5034050;28;20141;-61
2022/05/08 13:04:37;;;;;;;8.55;1.73;;;;;;;;;;5030543;28;20094;-60
2022/05/08 13:07:03;;;;;;;8.88;1.65;;;;;;;;;;5031783;28;21021;-60
2022/05/08 13:09:30;;;;;;;16.08;1.70;;;;;;;;;;5032739;28;20053;-60
2022/05/08 13:11:57;;;;;;;6.20;1.63;;;;;;;;;;5034400;28;20135;-61
2022/05/08 13:14:23;;;;;;;15.85;2.03;;;;;;;;;;5036902;28;20052;-61
2022/05/08 13:16:50;;;;;;;10.77;1.63;;;;;;;;;;5034328;28;20127;-61
2022/05/08 13:19:16;;;;;;;9.60;1.40;;;;;;;;;;5036361;28;20060;-60
2022/05/08 13:21:44;;;;;;;11.30;1.48;;;;;;;;;;5033151;28;20701;-61
2022/05/08 13:24:10;;;;;;;5.95;1.67;;;;;;;;;;5038434;28;20085;-60
2022/05/08 13:26:37;;;;;;;7.28;1.48;;;;;;;;;;5033264;28;20040;-61
2022/05/08 13:29:03;;;;;;;5.60;1.30;;;;;;;;;;5040775;28;20056;-61
2022/05/08 13:31:29;;;;;;;9.70;1.40;;;;;;;;;;5042709;28;20043;-61
2022/05/08 13:33:56;;;;;;;7.82;1.55;;;;;;;;;;5043306;28;20036;-62
2022/05/08 13:36:22;;;;;;;6.22;1.40;;;;;;;;;;5042490;28;20388;-62
2022/05/08 13:38:48;;;;;;;6.28;1.33;;;;;;;;;;5043007;28;20052;-62
2022/05/08 13:41:15;;;;;;;8.20;1.33;;;;;;;;;;5044067;28;20037;-62
2022/05/08 13:43:41;;;;;;;7.25;1.17;;;;;;;;;;5043881;28;20116;-61
2022/05/08 13:46:08;;;;;;;9.15;1.52;;;;;;;;;;5043474;28;20501;-61
2022/05/08 13:48:36;;;;;;;8.18;1.27;;;;;;;;;;5049218;28;20273;-62
2022/05/08 13:51:03;;;;;;;9.15;1.50;;;;;;;;;;5042642;28;20052;-60
2022/05/08 13:53:29;;;;;;;7.13;1.40;;;;;;;;;;5041473;28;20049;-62
2022/05/08 13:55:56;;;;;;;8.07;1.50;;;;;;;;;;5048566;28;20056;-60
2022/05/08 13:58:23;;;;;;;4.75;1.27;;;;;;;;;;5051123;28;20508;-62
2022/05/08 14:00:49;;;;;;;11.10;1.98;;;;;;;;;;5043344;28;20538;-62
2022/05/08 14:03:16;;;;;;;7.40;1.33;;;;;;;;;;5045840;28;20116;-62
2022/05/08 14:05:43;;;;;;;4.87;1.33;;;;;;;;;;5050983;28;20041;-62
2022/05/08 14:08:09;;;;;;;9.13;1.45;;;;;;;;;;5060209;28;20303;-61
2022/05/08 14:10:36;;;;;;;6.68;1.30;;;;;;;;;;5047391;28;20132;-62
2022/05/08 14:13:02;;;;;;;6.72;1.30;;;;;;;;;;5051578;28;20041;-62
2022/05/08 14:15:29;;;;;;;9.88;1.52;;;;;;;;;;5053664;28;20040;-62
2022/05/08 14:17:55;;;;;;;12.82;2.92;;;;;;;;;;5063645;28;20037;-60
2022/05/08 14:20:21;;;;;;;10.20;1.58;;;;;;;;;;5058129;28;20036;-62
2022/05/08 14:22:47;;;;;;;6.22;1.38;;;;;;;;;;5067685;28;20040;-61
2022/05/08 14:25:14;;;;;;;13.48;2.25;;;;;;;;;;5062794;28;20045;-62
2022/05/08 14:27:40;;;;;;;7.03;1.75;;;;;;;;;;5060018;28;20041;-61
2022/05/08 14:30:09;;;;;;;8.70;1.63;;;;;;;;;;5049053;28;20083;-61
2022/05/08 14:36:01;;;;;;;8.05;1.38;;;;;;;;;;5060805;28;20045;-62
2022/05/08 14:38:20;;;;;;;6.47;1.33;;;;;;;;;;5059734;28;20049;-62
2022/05/08 14:40:46;;;;;;;6.57;1.40;;;;;;;;;;5053778;28;20405;-60
2022/05/08 14:43:13;;;;;;;4.82;1.20;;;;;;;;;;5066827;28;20102;-59
2022/05/08 14:45:39;;;;;;;10.23;1.83;;;;;;;;;;5056826;28;20045;-59
2022/05/08 14:48:05;;;;;;;10.00;1.73;;;;;;;;;;5067661;28;20068;-59
2022/05/08 14:50:32;;;;;;;6.45;1.25;;;;;;;;;;5063215;28;20037;-59
2022/05/08 14:53:00;;;;;;;12.48;1.52;;;;;;;;;;5056622;28;20079;-59
2022/05/08 14:55:26;;;;;;;10.05;1.48;;;;;;;;;;5053855;28;20053;-59
2022/05/08 14:57:54;;;;;;;6.93;1.63;;;;;;;;;;5062017;28;20072;-60
2022/05/08 15:00:20;;;;;;;;;;;;;;;;;;5049302;28;20045;-59
2022/05/08 15:02:46;;;;;;;6.78;1.35;;;;;;;;;;5049672;28;19925;-59
2022/05/08 15:05:12;;;;;;;14.45;1.77;;;;;;;;;;5060088;28;20051;-60
2022/05/08 15:07:38;;;;;;;10.70;1.73;;;;;;;;;;5056879;28;20072;-60
2022/05/08 15:10:04;;;;;;;10.30;1.60;;;;;;;;;;5049045;28;20531;-60